Time;durP1;ratioP1;P1;durP2;ratioP2;P2;SDS_P1;SDS_P2;PMS_P1;PMS_P2;Temp;Humidity;BMP_temperature;BMP_pressure;BME280_temperature;BME280_humidity;BME280_pressure;Samples;Min_cycle;Max_cycle;Signal;HPM_P1;HPM_P2
2022/04/25 00:01:17;;;;;;;0.70;0.70;;;;;;;;;;1824674;77;26350;-60
2022/04/25 00:03:45;;;;;;;0.80;0.80;;;;;;;;;;1814841;78;26952;-61
2022/04/25 00:06:12;;;;;;;0.70;0.70;;;;;;;;;;1796963;78;26332;-63
2022/04/25 00:08:40;;;;;;;0.70;0.70;;;;;;;;;;1793871;80;26827;-62
2022/04/25 00:11:07;;;;;;;0.80;0.80;;;;;;;;;;1805453;78;26310;-61
2022/04/25 00:13:34;;;;;;;0.60;0.60;;;;;;;;;;1822681;77;26290;-63
2022/04/25 00:16:02;;;;;;;0.75;0.75;;;;;;;;;;1818106;77;26301;-60
2022/04/25 00:18:30;;;;;;;1.10;1.10;;;;;;;;;;1822900;77;26651;-62
2022/04/25 00:20:58;;;;;;;0.80;0.80;;;;;;;;;;1822933;78;26332;-61
2022/04/25 00:23:25;;;;;;;0.80;0.80;;;;;;;;;;1822946;77;26722;-59
2022/04/25 00:25:52;;;;;;;0.60;0.60;;;;;;;;;;1822865;78;26745;-56
2022/04/25 00:28:20;;;;;;;0.60;0.60;;;;;;;;;;1822023;77;26266;-62
2022/04/25 00:30:47;;;;;;;0.72;0.72;;;;;;;;;;1820123;77;26285;-57
2022/04/25 00:33:15;;;;;;;0.65;0.65;;;;;;;;;;1806617;78;26283;-60
2022/04/25 00:35:42;;;;;;;0.80;0.80;;;;;;;;;;1813179;77;26294;-59
2022/04/25 00:38:10;;;;;;;0.70;0.70;;;;;;;;;;1823057;78;26608;-63
2022/04/25 00:40:37;;;;;;;1.47;0.70;;;;;;;;;;1823102;77;26653;-60
2022/04/25 00:43:05;;;;;;;0.70;0.70;;;;;;;;;;1814306;78;26350;-58
2022/04/25 00:45:34;;;;;;;0.60;0.60;;;;;;;;;;1817467;78;26445;-61
2022/04/25 00:48:01;;;;;;;0.60;0.60;;;;;;;;;;1826793;78;26364;-61
2022/04/25 00:50:29;;;;;;;0.80;0.80;;;;;;;;;;1829254;77;25850;-61
2022/04/25 00:52:56;;;;;;;0.70;0.70;;;;;;;;;;1839961;77;26295;-64
2022/04/25 00:55:24;;;;;;;0.60;0.60;;;;;;;;;;1818937;78;26294;-64
2022/04/25 00:57:58;;;;;;;0.70;0.70;;;;;;;;;;1828862;78;26278;-60
2022/04/25 01:00:26;;;;;;;0.68;0.68;;;;;;;;;;1828799;78;26285;-58
2022/04/25 01:02:53;;;;;;;1.07;0.75;;;;;;;;;;1827026;78;26282;-60
2022/04/25 01:05:20;;;;;;;0.60;0.60;;;;;;;;;;1824525;77;26294;-57
2022/04/25 01:07:48;;;;;;;0.60;0.60;;;;;;;;;;1828955;77;26282;-61
2022/04/25 01:10:15;;;;;;;0.60;0.60;;;;;;;;;;1828877;78;26323;-60
2022/04/25 01:12:43;;;;;;;0.50;0.50;;;;;;;;;;1816351;77;26274;-62
2022/04/25 01:15:11;;;;;;;0.62;0.62;;;;;;;;;;1824413;78;26355;-63
2022/04/25 01:17:38;;;;;;;0.75;0.75;;;;;;;;;;1816937;77;26988;-61
2022/04/25 01:20:07;;;;;;;0.60;0.60;;;;;;;;;;1822312;78;26270;-61
2022/04/25 01:22:51;;;;;;;0.55;0.55;;;;;;;;;;1829403;78;26710;-62
2022/04/25 01:28:05;;;;;;;0.70;0.70;;;;;;;;;;1818504;77;26305;-58
2022/04/25 01:30:32;;;;;;;1.00;1.00;;;;;;;;;;1822125;77;26616;-59
2022/04/25 01:33:00;;;;;;;0.60;0.60;;;;;;;;;;1812675;78;26294;-58
2022/04/25 01:35:27;;;;;;;0.60;0.60;;;;;;;;;;1825683;78;26318;-58
2022/04/25 01:37:55;;;;;;;0.70;0.70;;;;;;;;;;1821827;77;26864;-61
2022/04/25 01:40:24;;;;;;;0.55;0.55;;;;;;;;;;1846141;77;26324;-61
2022/04/25 01:42:51;;;;;;;0.60;0.60;;;;;;;;;;1827268;78;26361;-61
2022/04/25 01:45:20;;;;;;;0.75;0.75;;;;;;;;;;1818298;77;26365;-61
2022/04/25 01:47:47;;;;;;;0.57;0.57;;;;;;;;;;1823401;78;26621;-63
2022/04/25 01:50:15;;;;;;;0.50;0.50;;;;;;;;;;1822659;77;26270;-61
2022/04/25 01:52:42;;;;;;;0.60;0.60;;;;;;;;;;1816248;77;26285;-61
2022/04/25 01:55:09;;;;;;;0.70;0.70;;;;;;;;;;1817756;77;26337;-61
2022/04/25 01:57:37;;;;;;;1.07;0.50;;;;;;;;;;1822727;77;26353;-61
2022/04/25 02:00:05;;;;;;;0.40;0.40;;;;;;;;;;1822727;77;26346;-61
2022/04/25 02:02:33;;;;;;;0.50;0.50;;;;;;;;;;1821373;77;26310;-58
2022/04/25 02:05:00;;;;;;;0.50;0.50;;;;;;;;;;1819061;78;26290;-59
2022/04/25 02:07:28;;;;;;;0.60;0.60;;;;;;;;;;1822773;78;26306;-59
2022/04/25 02:09:55;;;;;;;0.47;0.47;;;;;;;;;;1817434;78;26425;-64
2022/04/25 02:12:22;;;;;;;1.17;0.50;;;;;;;;;;1822124;77;26299;-60
2022/04/25 02:14:50;;;;;;;0.45;0.45;;;;;;;;;;1827832;77;26894;-61
2022/04/25 02:17:18;;;;;;;0.50;0.50;;;;;;;;;;1824377;77;26342;-61
2022/04/25 02:19:45;;;;;;;0.40;0.40;;;;;;;;;;1820054;77;26361;-60
2022/04/25 02:22:13;;;;;;;1.27;0.50;;;;;;;;;;1818884;78;26332;-63
2022/04/25 02:24:41;;;;;;;0.50;0.50;;;;;;;;;;1818591;77;26388;-64
2022/04/25 02:27:09;;;;;;;0.40;0.40;;;;;;;;;;1821263;77;26392;-61
2022/04/25 02:29:40;;;;;;;0.40;0.40;;;;;;;;;;1817173;77;26235;-62
2022/04/25 02:32:12;;;;;;;0.50;0.50;;;;;;;;;;1812871;78;26390;-59
2022/04/25 02:34:37;;;;;;;0.42;0.42;;;;;;;;;;1815557;78;26301;-63
2022/04/25 02:37:05;;;;;;;0.50;0.50;;;;;;;;;;1821151;77;26347;-59
2022/04/25 02:39:32;;;;;;;0.50;0.50;;;;;;;;;;1822575;77;26309;-61
2022/04/25 02:41:59;;;;;;;0.50;0.47;;;;;;;;;;1822989;78;26274;-59
2022/04/25 02:44:26;;;;;;;0.40;0.40;;;;;;;;;;1813937;77;26303;-64
2022/04/25 02:46:54;;;;;;;0.50;0.50;;;;;;;;;;1817450;77;26348;-64
2022/04/25 02:49:21;;;;;;;0.50;0.50;;;;;;;;;;1820185;78;26317;-61
2022/04/25 02:51:49;;;;;;;0.50;0.50;;;;;;;;;;1822106;78;26340;-60
2022/04/25 02:54:16;;;;;;;0.40;0.40;;;;;;;;;;1820392;78;26738;-61
2022/04/25 02:56:43;;;;;;;0.40;0.40;;;;;;;;;;1821405;78;26303;-61
2022/04/25 02:59:11;;;;;;;0.40;0.40;;;;;;;;;;1821906;77;26278;-58
2022/04/25 03:01:38;;;;;;;0.50;0.50;;;;;;;;;;1809988;77;25686;-63
2022/04/25 03:04:05;;;;;;;0.47;0.47;;;;;;;;;;1819048;78;26911;-59
2022/04/25 03:06:33;;;;;;;0.45;0.45;;;;;;;;;;1821492;78;26240;-58
2022/04/25 03:09:01;;;;;;;0.40;0.40;;;;;;;;;;1826861;77;26272;-61
2022/04/25 03:11:40;;;;;;;0.42;0.42;;;;;;;;;;1835034;77;26297;-59
2022/04/25 03:14:07;;;;;;;0.40;0.40;;;;;;;;;;1821661;78;26294;-59
2022/04/25 03:16:34;;;;;;;0.30;0.30;;;;;;;;;;1817763;78;26374;-60
2022/04/25 03:19:02;;;;;;;0.20;0.20;;;;;;;;;;1812048;77;26364;-61
2022/04/25 03:21:29;;;;;;;0.40;0.40;;;;;;;;;;1823081;77;26715;-60
2022/04/25 03:23:57;;;;;;;0.37;0.37;;;;;;;;;;1820791;78;26368;-61
2022/04/25 03:26:24;;;;;;;0.45;0.45;;;;;;;;;;1811968;78;26295;-56
2022/04/25 03:28:52;;;;;;;0.30;0.30;;;;;;;;;;1822011;78;26352;-63
2022/04/25 03:31:19;;;;;;;0.35;0.35;;;;;;;;;;1821830;77;26348;-60
2022/04/25 03:33:46;;;;;;;0.30;0.30;;;;;;;;;;1821921;78;26376;-61
2022/04/25 03:36:14;;;;;;;0.30;0.30;;;;;;;;;;1814659;78;26356;-60
2022/04/25 03:38:42;;;;;;;1.07;0.40;;;;;;;;;;1822058;78;26362;-61
2022/04/25 03:41:10;;;;;;;0.30;0.30;;;;;;;;;;1822514;78;26971;-61
2022/04/25 03:43:37;;;;;;;0.42;0.42;;;;;;;;;;1821922;77;26290;-63
2022/04/25 03:46:05;;;;;;;0.40;0.40;;;;;;;;;;1826205;77;26276;-65
2022/04/25 03:48:32;;;;;;;0.40;0.40;;;;;;;;;;1793991;78;26308;-56
2022/04/25 03:50:59;;;;;;;2.35;0.40;;;;;;;;;;1791772;80;26282;-59
2022/04/25 03:53:27;;;;;;;0.30;0.30;;;;;;;;;;1789940;80;26730;-59
2022/04/25 03:58:27;;;;;;;0.50;0.50;;;;;;;;;;1754119;80;26649;-58
2022/04/25 04:00:54;;;;;;;0.30;0.30;;;;;;;;;;1789294;80;26672;-60
2022/04/25 04:03:22;;;;;;;0.40;0.40;;;;;;;;;;1790875;80;26352;-64
2022/04/25 04:05:50;;;;;;;0.90;0.40;;;;;;;;;;1785766;78;26282;-62
2022/04/25 04:08:18;;;;;;;3.30;0.50;;;;;;;;;;1789966;78;26314;-61
2022/04/25 04:10:45;;;;;;;0.40;0.40;;;;;;;;;;1781857;80;26292;-64
2022/04/25 04:13:13;;;;;;;0.40;0.40;;;;;;;;;;1791942;78;26235;-60
2022/04/25 04:15:40;;;;;;;0.40;0.40;;;;;;;;;;1782544;78;27170;-60
2022/04/25 04:18:08;;;;;;;0.40;0.40;;;;;;;;;;1797879;78;26426;-55
2022/04/25 04:20:35;;;;;;;0.40;0.40;;;;;;;;;;1791649;80;26834;-60
2022/04/25 04:23:03;;;;;;;1.70;0.60;;;;;;;;;;1784860;80;26290;-63
2022/04/25 04:25:32;;;;;;;1.95;0.40;;;;;;;;;;1789556;78;26274;-60
2022/04/25 04:28:00;;;;;;;0.50;0.40;;;;;;;;;;1798566;79;26269;-58
2022/04/25 04:30:27;;;;;;;1.22;0.50;;;;;;;;;;1778586;78;26288;-57
2022/04/25 04:32:54;;;;;;;0.42;0.42;;;;;;;;;;1789056;80;26285;-61
2022/04/25 04:38:07;;;;;;;0.47;0.37;;;;;;;;;;1784832;80;26312;-58
2022/04/25 04:40:35;;;;;;;0.30;0.30;;;;;;;;;;1787471;78;26290;-62
2022/04/25 04:43:03;;;;;;;0.50;0.50;;;;;;;;;;1781325;80;26387;-60
2022/04/25 04:45:30;;;;;;;1.98;0.50;;;;;;;;;;1790079;80;26762;-58
2022/04/25 04:47:57;;;;;;;0.55;0.47;;;;;;;;;;1776637;78;26261;-56
2022/04/25 04:50:25;;;;;;;2.52;0.78;;;;;;;;;;1792722;79;26290;-57
2022/04/25 04:52:54;;;;;;;0.40;0.40;;;;;;;;;;1791356;80;26532;-58
2022/04/25 04:55:22;;;;;;;0.50;0.50;;;;;;;;;;1790625;80;26370;-61
2022/04/25 04:57:50;;;;;;;0.40;0.40;;;;;;;;;;1790671;80;26267;-58
2022/04/25 05:00:17;;;;;;;1.32;0.50;;;;;;;;;;1781288;78;26448;-63
2022/04/25 05:02:45;;;;;;;1.30;0.42;;;;;;;;;;1798695;78;26296;-63
2022/04/25 05:05:13;;;;;;;0.30;0.30;;;;;;;;;;1780995;78;26364;-57
2022/04/25 05:07:41;;;;;;;0.45;0.45;;;;;;;;;;1785674;80;26751;-61
2022/04/25 05:10:09;;;;;;;1.37;0.42;;;;;;;;;;1790152;78;26315;-57
2022/04/25 05:12:46;;;;;;;0.40;0.40;;;;;;;;;;1783722;80;26298;-56
2022/04/25 05:15:15;;;;;;;0.90;0.50;;;;;;;;;;1782862;80;26301;-49
2022/04/25 05:17:43;;;;;;;2.55;0.50;;;;;;;;;;1773323;80;26323;-51
2022/04/25 05:20:11;;;;;;;0.53;0.53;;;;;;;;;;1780587;80;26301;-53
2022/04/25 05:22:40;;;;;;;1.15;0.50;;;;;;;;;;1790763;80;26407;-49
2022/04/25 05:25:08;;;;;;;0.57;0.50;;;;;;;;;;1790497;80;26279;-51
2022/04/25 05:27:37;;;;;;;3.27;0.62;;;;;;;;;;1796067;79;26337;-56
2022/04/25 05:30:06;;;;;;;4.03;0.60;;;;;;;;;;1803944;78;26306;-55
2022/04/25 05:32:43;;;;;;;3.10;0.47;;;;;;;;;;1791635;78;26286;-49
2022/04/25 05:35:11;;;;;;;0.50;0.50;;;;;;;;;;1785598;80;26275;-46
2022/04/25 05:37:39;;;;;;;0.40;0.40;;;;;;;;;;1790860;78;26759;-50
2022/04/25 05:40:07;;;;;;;0.98;0.50;;;;;;;;;;1790098;80;26306;-59
2022/04/25 05:42:35;;;;;;;0.60;0.60;;;;;;;;;;1790766;80;26727;-57
2022/04/25 05:45:04;;;;;;;0.65;0.40;;;;;;;;;;1788030;78;26310;-50
2022/04/25 05:47:33;;;;;;;0.55;0.47;;;;;;;;;;1791120;80;26299;-46
2022/04/25 05:52:47;;;;;;;3.33;0.50;;;;;;;;;;1820278;78;26310;-55
2022/04/25 05:55:14;;;;;;;0.25;0.25;;;;;;;;;;1810635;77;26341;-45
2022/04/25 05:57:42;;;;;;;0.40;0.40;;;;;;;;;;1821999;77;26774;-55
2022/04/25 06:00:10;;;;;;;4.40;0.40;;;;;;;;;;1822120;78;26423;-53
2022/04/25 06:02:39;;;;;;;1.00;0.30;;;;;;;;;;1818910;77;27463;-58
2022/04/25 06:05:07;;;;;;;0.50;0.50;;;;;;;;;;1816743;77;26784;-50
2022/04/25 06:07:34;;;;;;;0.30;0.30;;;;;;;;;;1813293;77;26271;-62
2022/04/25 06:10:02;;;;;;;1.70;0.70;;;;;;;;;;1816880;78;26253;-55
2022/04/25 06:12:32;;;;;;;1.57;0.50;;;;;;;;;;1816702;77;26357;-51
2022/04/25 06:15:05;;;;;;;1.82;0.40;;;;;;;;;;1802397;79;26763;-50
2022/04/25 06:17:31;;;;;;;4.12;0.40;;;;;;;;;;1801776;78;26771;-48
2022/04/25 06:19:59;;;;;;;1.75;0.30;;;;;;;;;;1797113;78;26773;-52
2022/04/25 06:22:26;;;;;;;0.70;0.40;;;;;;;;;;1792253;79;26287;-45
2022/04/25 06:24:53;;;;;;;0.40;0.40;;;;;;;;;;1784628;78;26293;-48
2022/04/25 06:27:20;;;;;;;2.55;0.42;;;;;;;;;;1791623;79;26345;-48
2022/04/25 06:29:48;;;;;;;0.55;0.47;;;;;;;;;;1803117;78;26224;-55
2022/04/25 06:32:15;;;;;;;0.37;0.37;;;;;;;;;;1805447;79;26438;-55
2022/04/25 06:34:42;;;;;;;1.55;0.40;;;;;;;;;;1804089;79;26668;-59
2022/04/25 06:37:10;;;;;;;0.33;0.30;;;;;;;;;;1810429;78;26535;-58
2022/04/25 06:39:37;;;;;;;0.30;0.30;;;;;;;;;;1807429;78;26322;-57
2022/04/25 06:42:09;;;;;;;0.40;0.40;;;;;;;;;;1794379;78;26317;-55
2022/04/25 06:44:38;;;;;;;0.65;0.40;;;;;;;;;;1797718;79;26670;-59
2022/04/25 06:47:06;;;;;;;2.98;0.50;;;;;;;;;;1802347;78;26290;-56
2022/04/25 06:49:33;;;;;;;0.55;0.42;;;;;;;;;;1794287;79;26374;-53
2022/04/25 06:52:01;;;;;;;2.65;0.40;;;;;;;;;;1811784;77;26322;-52
2022/04/25 06:54:30;;;;;;;0.30;0.30;;;;;;;;;;1792578;79;26311;-50
2022/04/25 06:56:58;;;;;;;1.05;0.33;;;;;;;;;;1816272;77;26273;-48
2022/04/25 06:59:25;;;;;;;0.40;0.40;;;;;;;;;;1820039;79;26342;-51
2022/04/25 07:01:53;;;;;;;1.37;0.40;;;;;;;;;;1802613;79;26382;-55
2022/04/25 07:04:21;;;;;;;2.87;0.40;;;;;;;;;;1799581;79;26814;-55
2022/04/25 07:06:48;;;;;;;0.55;0.37;;;;;;;;;;1795930;80;26229;-51
2022/04/25 07:09:15;;;;;;;0.30;0.30;;;;;;;;;;1794159;80;26307;-50
2022/04/25 07:11:44;;;;;;;0.25;0.25;;;;;;;;;;1798483;79;26333;-57
2022/04/25 07:14:12;;;;;;;0.40;0.40;;;;;;;;;;1795470;79;26307;-56
2022/04/25 07:16:45;;;;;;;0.40;0.40;;;;;;;;;;1793400;79;26365;-58
2022/04/25 07:19:11;;;;;;;0.23;0.23;;;;;;;;;;1793870;80;26357;-58
2022/04/25 07:29:55;;;;;;;0.40;0.40;;;;;;;;;;1820736;77;26298;-53
2022/04/25 07:32:22;;;;;;;0.37;0.30;;;;;;;;;;1820710;77;26243;-44
2022/04/25 07:34:50;;;;;;;0.40;0.40;;;;;;;;;;1820828;77;26282;-54
2022/04/25 07:37:18;;;;;;;0.40;0.40;;;;;;;;;;1820692;77;26329;-51
2022/04/25 07:39:46;;;;;;;0.40;0.40;;;;;;;;;;1821147;77;26297;-54
2022/04/25 07:42:15;;;;;;;0.40;0.40;;;;;;;;;;1818048;77;26304;-47
2022/04/25 07:44:42;;;;;;;0.45;0.40;;;;;;;;;;1813239;77;26294;-56
2022/04/25 07:47:10;;;;;;;1.27;0.47;;;;;;;;;;1816496;77;26758;-47
2022/04/25 07:49:38;;;;;;;0.30;0.30;;;;;;;;;;1821063;77;26845;-53
2022/04/25 07:52:05;;;;;;;0.35;0.35;;;;;;;;;;1806511;78;26298;-49
2022/04/25 07:54:32;;;;;;;0.50;0.50;;;;;;;;;;1812724;78;26303;-51
2022/04/25 07:57:00;;;;;;;0.33;0.33;;;;;;;;;;1812063;78;26283;-52
2022/04/25 07:59:27;;;;;;;0.30;0.30;;;;;;;;;;1807074;78;26250;-57
2022/04/25 08:01:54;;;;;;;0.50;0.50;;;;;;;;;;1773490;79;26279;-51
2022/04/25 08:04:21;;;;;;;0.40;0.40;;;;;;;;;;1799215;78;26349;-47
2022/04/25 08:06:49;;;;;;;1.10;0.50;;;;;;;;;;1818511;78;26218;-52
2022/04/25 08:09:16;;;;;;;0.50;0.50;;;;;;;;;;1846656;76;26315;-49
2022/04/25 08:11:44;;;;;;;0.30;0.30;;;;;;;;;;1854136;76;26632;-53
2022/04/25 08:19:26;;;;;;;0.30;0.30;;;;;;;;;;1857932;76;26305;-44
2022/04/25 08:21:54;;;;;;;0.60;0.60;;;;;;;;;;1848214;76;26710;-48
2022/04/25 08:24:21;;;;;;;0.30;0.30;;;;;;;;;;1848135;76;26269;-48
2022/04/25 08:26:49;;;;;;;0.40;0.40;;;;;;;;;;1847872;76;26187;-49
2022/04/25 08:29:16;;;;;;;0.40;0.40;;;;;;;;;;1848564;76;26734;-46
2022/04/25 08:31:44;;;;;;;0.30;0.30;;;;;;;;;;1848579;76;26312;-48
2022/04/25 08:34:11;;;;;;;0.40;0.40;;;;;;;;;;1862358;76;26329;-46
2022/04/25 08:36:38;;;;;;;0.40;0.40;;;;;;;;;;1844635;76;26295;-54
2022/04/25 08:39:05;;;;;;;0.47;0.47;;;;;;;;;;1848698;76;26282;-49
2022/04/25 08:41:43;;;;;;;0.40;0.40;;;;;;;;;;1847983;76;26281;-54
2022/04/25 08:44:11;;;;;;;0.40;0.40;;;;;;;;;;1849146;76;26681;-54
2022/04/25 08:46:40;;;;;;;0.42;0.42;;;;;;;;;;1847918;76;26214;-53
2022/04/25 08:49:11;;;;;;;0.50;0.50;;;;;;;;;;1834147;76;26298;-47
2022/04/25 08:51:39;;;;;;;0.50;0.50;;;;;;;;;;1832658;76;26258;-56
2022/04/25 08:54:08;;;;;;;0.50;0.50;;;;;;;;;;1852805;76;26858;-48
2022/04/25 08:56:40;;;;;;;0.50;0.50;;;;;;;;;;1862153;76;26670;-52
2022/04/25 08:59:08;;;;;;;0.50;0.50;;;;;;;;;;1833996;76;26280;-48
2022/04/25 09:01:36;;;;;;;1.85;0.50;;;;;;;;;;1847942;77;26257;-65
2022/04/25 09:04:04;;;;;;;0.40;0.40;;;;;;;;;;1847376;77;26262;-58
2022/04/25 09:06:32;;;;;;;0.60;0.60;;;;;;;;;;1848163;76;26249;-49
2022/04/25 09:08:59;;;;;;;0.40;0.40;;;;;;;;;;1848143;77;26726;-51
2022/04/25 09:14:12;;;;;;;0.40;0.40;;;;;;;;;;1847269;77;26881;-48
2022/04/25 09:16:40;;;;;;;1.47;0.60;;;;;;;;;;1847682;77;26249;-55
2022/04/25 09:19:08;;;;;;;0.60;0.60;;;;;;;;;;1850408;76;26281;-50
2022/04/25 09:21:42;;;;;;;0.30;0.30;;;;;;;;;;1848015;77;26234;-51
2022/04/25 09:24:22;;;;;;;0.47;0.47;;;;;;;;;;1843482;77;26246;-53
2022/04/25 09:26:52;;;;;;;1.75;0.62;;;;;;;;;;1848427;77;26253;-49
2022/04/25 09:29:21;;;;;;;0.40;0.40;;;;;;;;;;1853124;76;26296;-53
2022/04/25 09:31:49;;;;;;;0.60;0.60;;;;;;;;;;1847773;76;25690;-52
2022/04/25 09:34:59;;;;;;;0.50;0.50;;;;;;;;;;1848331;77;26842;-48
2022/04/25 09:36:49;;;;;;;0.50;0.50;;;;;;;;;;1844982;77;26706;-49
2022/04/25 09:39:30;;;;;;;0.50;0.50;;;;;;;;;;1848118;77;26335;-49
2022/04/25 09:41:58;;;;;;;0.50;0.50;;;;;;;;;;1846902;76;26308;-59
2022/04/25 09:44:25;;;;;;;0.60;0.60;;;;;;;;;;1845675;76;26343;-53
2022/04/25 09:46:52;;;;;;;0.60;0.60;;;;;;;;;;1847237;76;26681;-53
2022/04/25 09:49:20;;;;;;;0.60;0.60;;;;;;;;;;1848214;77;26756;-49
2022/04/25 09:52:01;;;;;;;0.60;0.60;;;;;;;;;;1843409;76;26258;-50
2022/04/25 09:54:29;;;;;;;0.50;0.50;;;;;;;;;;1847418;77;26716;-46
2022/04/25 09:56:56;;;;;;;0.53;0.53;;;;;;;;;;1849699;76;26300;-47
2022/04/25 09:59:25;;;;;;;0.60;0.60;;;;;;;;;;1848429;77;27214;-48
2022/04/25 10:02:04;;;;;;;0.50;0.50;;;;;;;;;;1847797;76;26327;-52
2022/04/25 10:04:36;;;;;;;3.35;0.50;;;;;;;;;;1842922;76;26304;-56
2022/04/25 10:07:04;;;;;;;0.50;0.50;;;;;;;;;;1848334;77;26209;-46
2022/04/25 10:09:33;;;;;;;0.68;0.60;;;;;;;;;;1849924;76;26333;-51
2022/04/25 10:12:01;;;;;;;0.40;0.40;;;;;;;;;;1847751;77;27542;-49
2022/04/25 10:14:29;;;;;;;0.70;0.70;;;;;;;;;;1837596;76;26273;-49
2022/04/25 10:16:57;;;;;;;2.52;0.40;;;;;;;;;;1844511;77;26780;-47
2022/04/25 10:19:26;;;;;;;0.50;0.50;;;;;;;;;;1848065;77;26918;-51
2022/04/25 10:21:54;;;;;;;1.30;0.60;;;;;;;;;;1836086;77;26258;-55
2022/04/25 10:24:22;;;;;;;0.60;0.60;;;;;;;;;;1848333;77;26219;-66
2022/04/25 10:26:50;;;;;;;0.50;0.50;;;;;;;;;;1848754;76;26729;-54
2022/04/25 10:29:22;;;;;;;0.60;0.60;;;;;;;;;;1851137;76;26348;-51
2022/04/25 10:31:50;;;;;;;2.72;0.60;;;;;;;;;;1842557;76;26266;-51
2022/04/25 10:34:17;;;;;;;0.60;0.60;;;;;;;;;;1846709;76;26753;-48
2022/04/25 10:36:46;;;;;;;0.40;0.40;;;;;;;;;;1846427;76;26252;-48
2022/04/25 10:39:14;;;;;;;0.40;0.40;;;;;;;;;;1847586;76;26262;-53
2022/04/25 10:44:33;;;;;;;0.50;0.50;;;;;;;;;;1846705;76;26402;-52
2022/04/25 10:47:05;;;;;;;0.50;0.50;;;;;;;;;;1845576;76;26331;-55
2022/04/25 10:49:33;;;;;;;2.85;0.60;;;;;;;;;;1851620;76;26298;-49
2022/04/25 10:52:00;;;;;;;0.50;0.50;;;;;;;;;;1851375;76;26694;-55
2022/04/25 10:54:28;;;;;;;0.42;0.42;;;;;;;;;;1858968;76;26243;-56
2022/04/25 10:57:09;;;;;;;0.55;0.55;;;;;;;;;;1852933;77;26652;-57
2022/04/25 10:59:40;;;;;;;0.50;0.50;;;;;;;;;;1858436;76;26312;-52
2022/04/25 11:02:21;;;;;;;0.60;0.60;;;;;;;;;;1855944;76;26752;-54
2022/04/25 11:04:48;;;;;;;0.50;0.50;;;;;;;;;;1787178;77;26331;-55
2022/04/25 11:07:25;;;;;;;0.70;0.70;;;;;;;;;;1869250;76;26767;-63
2022/04/25 11:09:53;;;;;;;0.88;0.60;;;;;;;;;;1855493;76;26369;-58
2022/04/25 11:12:22;;;;;;;0.40;0.40;;;;;;;;;;1858052;76;26311;-49
2022/04/25 11:14:57;;;;;;;0.50;0.50;;;;;;;;;;1844279;76;26327;-51
2022/04/25 11:17:26;;;;;;;0.50;0.50;;;;;;;;;;1849744;77;26843;-53
2022/04/25 11:19:55;;;;;;;0.40;0.40;;;;;;;;;;1840549;77;26281;-51
2022/04/25 11:22:33;;;;;;;0.50;0.50;;;;;;;;;;1848989;76;26572;-55
2022/04/25 11:25:18;;;;;;;1.75;0.70;;;;;;;;;;1848493;76;26320;-49
2022/04/25 11:28:05;;;;;;;1.85;0.72;;;;;;;;;;1856395;76;26335;-55
2022/04/25 11:30:32;;;;;;;0.50;0.50;;;;;;;;;;1855259;76;26326;-46
2022/04/25 11:33:04;;;;;;;0.60;0.60;;;;;;;;;;1861041;76;26239;-51
2022/04/25 11:35:32;;;;;;;0.57;0.57;;;;;;;;;;1857421;76;26354;-46
2022/04/25 11:38:00;;;;;;;0.60;0.60;;;;;;;;;;1852990;76;26807;-52
2022/04/25 11:40:27;;;;;;;0.65;0.65;;;;;;;;;;1844913;77;26280;-47
2022/04/25 11:42:56;;;;;;;0.60;0.60;;;;;;;;;;1853460;76;26265;-47
2022/04/25 11:45:23;;;;;;;0.70;0.70;;;;;;;;;;1856826;76;26386;-57
2022/04/25 11:47:51;;;;;;;0.50;0.50;;;;;;;;;;1857043;76;26261;-55
2022/04/25 11:50:23;;;;;;;2.10;0.68;;;;;;;;;;1875466;76;26258;-57
2022/04/25 11:52:52;;;;;;;0.50;0.50;;;;;;;;;;1850102;76;26670;-55
2022/04/25 11:55:21;;;;;;;0.70;0.70;;;;;;;;;;1849441;76;26263;-50
2022/04/25 11:57:48;;;;;;;0.70;0.70;;;;;;;;;;1846665;76;26257;-49
2022/04/25 12:00:21;;;;;;;0.50;0.50;;;;;;;;;;1858496;76;26734;-49
2022/04/25 12:02:48;;;;;;;0.70;0.70;;;;;;;;;;1854857;76;26265;-56
2022/04/25 12:05:29;;;;;;;0.60;0.60;;;;;;;;;;1851911;76;27408;-53
2022/04/25 12:16:14;;;;;;;1.17;1.00;;;;;;;;;;1844539;76;26787;-49
2022/04/25 12:18:49;;;;;;;0.70;0.70;;;;;;;;;;1849877;76;26355;-52
2022/04/25 12:21:17;;;;;;;0.80;0.80;;;;;;;;;;1845066;76;26750;-53
2022/04/25 12:23:49;;;;;;;0.68;0.68;;;;;;;;;;1848336;76;26859;-53
2022/04/25 12:26:18;;;;;;;0.70;0.70;;;;;;;;;;1844874;76;26335;-51
2022/04/25 12:28:50;;;;;;;0.80;0.80;;;;;;;;;;1855727;76;26323;-55
2022/04/25 12:31:19;;;;;;;0.70;0.70;;;;;;;;;;1855622;76;26266;-49
2022/04/25 12:33:47;;;;;;;0.70;0.70;;;;;;;;;;1839520;76;26281;-55
2022/04/25 12:36:25;;;;;;;0.70;0.70;;;;;;;;;;1843163;76;26761;-49
2022/04/25 12:38:53;;;;;;;0.80;0.80;;;;;;;;;;1831441;76;26965;-55
2022/04/25 12:41:22;;;;;;;0.70;0.70;;;;;;;;;;1851438;76;26266;-53
2022/04/25 12:43:50;;;;;;;0.80;0.80;;;;;;;;;;1839649;76;26262;-47
2022/04/25 12:46:19;;;;;;;1.32;0.70;;;;;;;;;;1847579;76;26576;-46
2022/04/25 12:49:03;;;;;;;0.60;0.60;;;;;;;;;;1845266;76;26257;-50
2022/04/25 12:51:38;;;;;;;0.70;0.70;;;;;;;;;;1847134;76;26768;-52
2022/04/25 12:54:06;;;;;;;0.80;0.80;;;;;;;;;;1861355;76;26335;-48
2022/04/25 12:56:35;;;;;;;1.05;0.78;;;;;;;;;;1857842;76;26324;-50
2022/04/25 12:59:03;;;;;;;1.00;0.70;;;;;;;;;;1847095;76;26283;-51
2022/04/25 13:01:32;;;;;;;0.70;0.70;;;;;;;;;;1847902;76;26301;-46
2022/04/25 13:04:19;;;;;;;0.80;0.80;;;;;;;;;;1865801;76;26267;-48
2022/04/25 13:06:44;;;;;;;1.30;0.70;;;;;;;;;;1861859;76;26277;-51
2022/04/25 13:09:13;;;;;;;0.78;0.78;;;;;;;;;;1847849;76;26360;-50
2022/04/25 13:11:40;;;;;;;0.65;0.65;;;;;;;;;;1849033;76;26256;-47
2022/04/25 13:14:08;;;;;;;1.75;0.90;;;;;;;;;;1851433;76;26202;-52
2022/04/25 13:16:36;;;;;;;0.90;0.90;;;;;;;;;;1848862;76;26780;-53
2022/04/25 13:19:03;;;;;;;0.70;0.70;;;;;;;;;;1837200;76;26342;-50
2022/04/25 13:21:30;;;;;;;0.70;0.70;;;;;;;;;;1848586;76;26298;-46
2022/04/25 13:23:59;;;;;;;0.80;0.80;;;;;;;;;;1846377;76;26266;-49
2022/04/25 13:26:26;;;;;;;0.80;0.70;;;;;;;;;;1835588;76;26285;-49
2022/04/25 13:28:53;;;;;;;0.88;0.88;;;;;;;;;;1857642;76;26758;-51
2022/04/25 13:31:21;;;;;;;0.70;0.70;;;;;;;;;;1841014;76;26343;-51
2022/04/25 13:33:48;;;;;;;0.80;0.80;;;;;;;;;;1856384;76;26259;-52
2022/04/25 13:36:15;;;;;;;0.70;0.70;;;;;;;;;;1855579;76;26257;-49
2022/04/25 13:38:42;;;;;;;0.75;0.75;;;;;;;;;;1851475;76;26358;-48
2022/04/25 13:41:10;;;;;;;0.90;0.90;;;;;;;;;;1845959;76;26398;-51
2022/04/25 13:43:37;;;;;;;0.88;0.88;;;;;;;;;;1857446;76;26239;-46
2022/04/25 13:46:04;;;;;;;0.70;0.70;;;;;;;;;;1853293;76;25640;-50
2022/04/25 13:48:31;;;;;;;0.88;0.88;;;;;;;;;;1848415;76;26673;-48
2022/04/25 13:50:59;;;;;;;0.80;0.80;;;;;;;;;;1848205;76;26667;-51
2022/04/25 13:53:27;;;;;;;0.70;0.70;;;;;;;;;;1849134;76;26328;-47
2022/04/25 13:55:54;;;;;;;0.70;0.70;;;;;;;;;;1856010;76;26348;-53
2022/04/25 13:58:21;;;;;;;0.70;0.70;;;;;;;;;;1856539;76;26614;-46
2022/04/25 14:00:49;;;;;;;0.78;0.78;;;;;;;;;;1851316;76;26392;-51
2022/04/25 14:03:16;;;;;;;0.88;0.88;;;;;;;;;;1856354;76;26289;-50
2022/04/25 14:05:45;;;;;;;0.80;0.80;;;;;;;;;;1856451;76;26362;-50
2022/04/25 14:08:14;;;;;;;0.70;0.70;;;;;;;;;;1856435;76;26241;-49
2022/04/25 14:10:42;;;;;;;0.80;0.80;;;;;;;;;;1853513;76;26369;-51
2022/04/25 14:13:11;;;;;;;1.02;0.90;;;;;;;;;;1875091;76;26575;-55
2022/04/25 14:15:39;;;;;;;0.80;0.80;;;;;;;;;;1845137;76;26230;-50
2022/04/25 14:18:08;;;;;;;0.70;0.70;;;;;;;;;;1852845;76;26269;-50
2022/04/25 14:20:36;;;;;;;0.80;0.80;;;;;;;;;;1849623;76;25849;-54
2022/04/25 14:23:05;;;;;;;0.78;0.78;;;;;;;;;;1856157;77;26284;-53
2022/04/25 14:25:32;;;;;;;0.80;0.80;;;;;;;;;;1856201;76;26323;-51
2022/04/25 14:28:01;;;;;;;2.37;0.82;;;;;;;;;;1848879;76;26272;-55
2022/04/25 14:30:29;;;;;;;1.17;0.78;;;;;;;;;;1849362;76;26355;-49
2022/04/25 14:32:57;;;;;;;0.80;0.80;;;;;;;;;;1860023;76;26247;-54
2022/04/25 14:35:25;;;;;;;0.90;0.90;;;;;;;;;;1864843;76;26859;-49
2022/04/25 14:37:53;;;;;;;1.15;0.80;;;;;;;;;;1856602;76;26338;-53
2022/04/25 14:40:20;;;;;;;0.80;0.80;;;;;;;;;;1849267;76;26372;-48
2022/04/25 14:42:48;;;;;;;1.20;0.90;;;;;;;;;;1862807;76;26272;-52
2022/04/25 14:45:15;;;;;;;3.83;0.98;;;;;;;;;;1855249;76;26307;-49
2022/04/25 14:47:46;;;;;;;2.27;0.88;;;;;;;;;;1854162;76;26370;-51
2022/04/25 14:55:43;;;;;;;3.60;1.00;;;;;;;;;;1848470;76;26854;-52
2022/04/25 14:58:10;;;;;;;1.57;0.70;;;;;;;;;;1842268;76;26315;-51
2022/04/25 15:00:38;;;;;;;3.33;0.80;;;;;;;;;;1846559;76;26959;-48
2022/04/25 15:03:05;;;;;;;0.95;0.90;;;;;;;;;;1849472;76;26695;-51
2022/04/25 15:05:32;;;;;;;2.65;0.88;;;;;;;;;;1843805;76;26281;-45
2022/04/25 15:08:00;;;;;;;0.88;0.88;;;;;;;;;;1843222;76;26269;-52
2022/04/25 15:10:28;;;;;;;1.85;0.93;;;;;;;;;;1848763;76;26359;-48
2022/04/25 15:12:55;;;;;;;2.47;0.72;;;;;;;;;;1836645;77;26337;-49
2022/04/25 15:15:22;;;;;;;2.67;0.90;;;;;;;;;;1845659;76;26261;-49
2022/04/25 15:17:49;;;;;;;1.20;0.70;;;;;;;;;;1846086;76;26789;-54
2022/04/25 15:20:17;;;;;;;2.42;0.82;;;;;;;;;;1844586;76;27684;-49
2022/04/25 15:22:44;;;;;;;4.12;0.95;;;;;;;;;;1846795;77;26717;-51
2022/04/25 15:25:11;;;;;;;1.77;0.70;;;;;;;;;;1847900;76;26281;-54
2022/04/25 15:27:39;;;;;;;0.80;0.80;;;;;;;;;;1847655;76;26293;-51
2022/04/25 15:30:08;;;;;;;0.80;0.80;;;;;;;;;;1846466;76;27365;-49
2022/04/25 15:32:35;;;;;;;0.90;0.65;;;;;;;;;;1853958;76;26892;-47
2022/04/25 15:35:03;;;;;;;1.15;0.70;;;;;;;;;;1848318;76;26222;-51